Bookmark and Share
Track history (hours):
 

Tourist.f.b.terzo

Last reported at 2014-Apr-16 13:33 UTC. Time now 2014-Apr-16 13:40 UTC.
Position N 40°45' E 013°54'.

Length 53 m; draft 1.7 m.

Type: Ship. MMSI: 247048900.

NotesDate/timePositionNaut miles runAvg speedWind from/ knotsBaromVisibWave heightAir tempDewpointWater temp
2014-Apr-16 13:33N 40°45' E 013°54'0 0.0
2014-Apr-16 12:33N 40°45' E 013°54'0 0.0
2014-Apr-16 11:33N 40°45' E 013°54'6 6.4
2014-Apr-16 10:33N 40°46' E 014°03'5 4.4
2014-Apr-16 09:32N 40°49' E 014°07'5 5.5
2014-Apr-16 08:33N 40°46' E 014°02'5 5.3
2014-Apr-16 07:33N 40°49' E 014°07'6 6.2
2014-Apr-16 06:33N 40°46' E 013°60'4 4.1
2014-Apr-16 05:33N 40°45' E 013°55'7 6.7
2014-Apr-16 04:33N 40°46' E 014°04'4 4.1
2014-Apr-16 03:34N 40°49' E 014°07'7 6.8
2014-Apr-16 02:33N 40°47' E 013°59'2 2.4
2014-Apr-16 01:33N 40°45' E 013°56'8 7.5
2014-Apr-16 00:33N 40°47' E 014°06'1 1.2
2014-Apr-15 23:33N 40°46' E 014°04'8 7.6
2014-Apr-15 22:34N 40°45' E 013°55'0 0.1
2014-Apr-15 21:33N 40°45' E 013°54'0 0.0
2014-Apr-15 20:33N 40°45' E 013°54'0 0.0
2014-Apr-15 19:33N 40°45' E 013°54'0 0.0
2014-Apr-15 18:33N 40°45' E 013°54'0 0.0
2014-Apr-15 17:33N 40°45' E 013°54'0 0.0
2014-Apr-15 16:33N 40°45' E 013°54'0 0.0
2014-Apr-15 15:33N 40°45' E 013°54'0 0.0
2014-Apr-15 14:33N 40°45' E 013°54'0 0.0
2014-Apr-15 12:34N 40°45' E 013°54'0 0.0
2014-Apr-15 11:34N 40°45' E 013°54'0 0.0
2014-Apr-15 10:34N 40°45' E 013°54'4 4.4
2014-Apr-15 09:34N 40°46' E 014°00'6 6.2
2014-Apr-15 08:33N 40°49' E 014°07'3 3.0
2014-Apr-15 07:34N 40°47' E 014°06'1 1.2
2014-Apr-15 06:34N 40°48' E 014°06'1 1.5
2014-Apr-15 05:34N 40°46' E 014°05'3 1.5
2014-Apr-15 03:34N 40°46' E 014°02'5 5.4
2014-Apr-15 02:34N 40°49' E 014°07'6 6.0
2014-Apr-15 01:34N 40°46' E 014°00'2 2.5
2014-Apr-15 00:34N 40°46' E 013°57'7 6.9
2014-Apr-14 23:34N 40°47' E 014°06'1 0.7
2014-Apr-14 22:34N 40°46' E 014°05'8 8.3
2014-Apr-14 21:34N 40°45' E 013°54'0 0.0
2014-Apr-14 20:34N 40°45' E 013°54'0 0.0
2014-Apr-14 19:34N 40°45' E 013°54'0 0.0
2014-Apr-14 18:34N 40°45' E 013°54'0 0.0
2014-Apr-14 17:31N 40°45' E 013°54'0 0.0
2014-Apr-14 16:34N 40°45' E 013°54'0 0.0
2014-Apr-14 15:34N 40°45' E 013°54'0 0.0
2014-Apr-14 14:34N 40°45' E 013°54'0 0.0
2014-Apr-14 13:34N 40°45' E 013°54'0 0.0
2014-Apr-14 11:34N 40°45' E 013°54'0 0.0
2014-Apr-14 10:31N 40°45' E 013°54'0 0.0
2014-Apr-14 09:34N 40°45' E 013°54'0 0.1
2014-Apr-14 08:34N 40°45' E 013°55'7 7.3
2014-Apr-14 07:34N 40°46' E 014°04'  

Dump ship's entire track history

sailing weather and tide predictions

Tourist.f.b.terzo — IQAQ — position and weather